Time;durP1;ratioP1;P1;durP2;ratioP2;P2;SDS_P1;SDS_P2;PMS_P1;PMS_P2;Temp;Humidity;BMP_temperature;BMP_pressure;BME280_temperature;BME280_humidity;BME280_pressure;Samples;Min_cycle;Max_cycle;Signal;HPM_P1;HPM_P2
2022/10/16 00:01:10;;;;;;;7.95;2.20;;;;;;;;;;5141309;27;20067;-70
2022/10/16 00:03:37;;;;;;;9.15;2.35;;;;;;;;;;5152630;27;20075;-70
2022/10/16 00:06:03;;;;;;;12.95;2.65;;;;;;;;;;5137393;27;20046;-70
2022/10/16 00:08:30;;;;;;;10.05;2.35;;;;;;;;;;5138742;27;20397;-70
2022/10/16 00:11:04;;;;;;;11.60;2.47;;;;;;;;;;5145449;27;20039;-70
2022/10/16 00:13:31;;;;;;;11.18;2.30;;;;;;;;;;5133091;27;20070;-70
2022/10/16 00:15:57;;;;;;;9.25;2.20;;;;;;;;;;5142860;27;20790;-70
2022/10/16 00:18:24;;;;;;;10.90;2.58;;;;;;;;;;5149989;27;20042;-70
2022/10/16 00:20:50;;;;;;;11.07;2.90;;;;;;;;;;5122927;27;20027;-70
2022/10/16 00:23:16;;;;;;;7.55;1.98;;;;;;;;;;5136028;27;20031;-71
2022/10/16 00:25:42;;;;;;;8.98;2.17;;;;;;;;;;5136790;27;20046;-70
2022/10/16 00:28:08;;;;;;;8.23;2.30;;;;;;;;;;5137370;27;20085;-70
2022/10/16 00:30:34;;;;;;;9.20;2.20;;;;;;;;;;5139422;27;20396;-70
2022/10/16 00:33:00;;;;;;;9.38;2.00;;;;;;;;;;5121451;27;20044;-70
2022/10/16 00:35:26;;;;;;;7.45;2.17;;;;;;;;;;5137741;27;20038;-71
2022/10/16 00:37:52;;;;;;;8.85;2.15;;;;;;;;;;5139473;27;20031;-71
2022/10/16 00:40:18;;;;;;;8.77;2.30;;;;;;;;;;5135719;27;20043;-70
2022/10/16 00:42:44;;;;;;;9.18;2.20;;;;;;;;;;5119285;27;20042;-70
2022/10/16 00:45:10;;;;;;;8.23;2.00;;;;;;;;;;5137413;27;20119;-70
2022/10/16 00:47:36;;;;;;;9.40;1.92;;;;;;;;;;5116645;27;20061;-70
2022/10/16 00:50:07;;;;;;;9.15;2.20;;;;;;;;;;5138598;27;20496;-70
2022/10/16 00:52:33;;;;;;;10.07;2.30;;;;;;;;;;5148710;27;20035;-70
2022/10/16 00:55:00;;;;;;;10.00;2.15;;;;;;;;;;5135176;27;20059;-70
2022/10/16 00:57:26;;;;;;;6.93;2.58;;;;;;;;;;5143787;27;20507;-70
2022/10/16 00:59:53;;;;;;;9.65;2.33;;;;;;;;;;5147374;27;20050;-70
2022/10/16 01:02:19;;;;;;;10.93;2.45;;;;;;;;;;5141757;27;20077;-70
2022/10/16 01:04:49;;;;;;;9.45;2.20;;;;;;;;;;5143559;27;20051;-70
2022/10/16 01:07:25;;;;;;;11.15;2.35;;;;;;;;;;5147394;27;20053;-70
2022/10/16 01:09:51;;;;;;;8.68;2.40;;;;;;;;;;5122474;27;20050;-70
2022/10/16 01:12:23;;;;;;;7.95;2.53;;;;;;;;;;5138477;27;20046;-70
2022/10/16 01:14:54;;;;;;;7.93;2.40;;;;;;;;;;5139389;27;20156;-70
2022/10/16 01:17:24;;;;;;;7.90;2.70;;;;;;;;;;5150472;27;20054;-70
2022/10/16 01:20:01;;;;;;;11.02;2.90;;;;;;;;;;5140546;27;20071;-70
2022/10/16 01:22:32;;;;;;;7.32;2.85;;;;;;;;;;5136815;27;20039;-70
2022/10/16 01:25:00;;;;;;;10.60;2.78;;;;;;;;;;5137619;27;20047;-70
2022/10/16 01:27:33;;;;;;;11.60;3.00;;;;;;;;;;5151094;27;20168;-70
2022/10/16 01:30:02;;;;;;;8.10;3.08;;;;;;;;;;5145464;27;20038;-70
2022/10/16 01:32:42;;;;;;;9.00;2.75;;;;;;;;;;5156946;27;20117;-70
2022/10/16 01:35:18;;;;;;;8.23;3.00;;;;;;;;;;5124215;27;20112;-70
2022/10/16 01:37:47;;;;;;;8.25;3.03;;;;;;;;;;5145219;27;20384;-70
2022/10/16 01:40:15;;;;;;;8.52;2.88;;;;;;;;;;5151283;27;20035;-70
2022/10/16 01:42:43;;;;;;;7.65;3.05;;;;;;;;;;5156660;27;20034;-70
2022/10/16 01:45:11;;;;;;;8.15;2.78;;;;;;;;;;5136166;27;20500;-69
2022/10/16 01:47:38;;;;;;;8.88;2.78;;;;;;;;;;5136398;27;20047;-70
2022/10/16 01:50:05;;;;;;;9.38;2.70;;;;;;;;;;5116567;27;20043;-69
2022/10/16 01:52:32;;;;;;;11.43;3.10;;;;;;;;;;5124294;27;20047;-70
2022/10/16 01:55:01;;;;;;;8.27;2.83;;;;;;;;;;5135204;27;20039;-70
2022/10/16 01:57:27;;;;;;;6.18;2.60;;;;;;;;;;5140477;27;21114;-69
2022/10/16 01:59:55;;;;;;;7.72;2.50;;;;;;;;;;5154261;27;20377;-69
2022/10/16 02:02:22;;;;;;;9.18;2.58;;;;;;;;;;5145483;27;20039;-70
2022/10/16 02:04:57;;;;;;;9.35;3.05;;;;;;;;;;5151524;27;20039;-70
2022/10/16 02:07:23;;;;;;;9.10;2.70;;;;;;;;;;5154936;27;20130;-70
2022/10/16 02:09:50;;;;;;;9.05;3.00;;;;;;;;;;5151258;27;20178;-70
2022/10/16 02:12:24;;;;;;;8.52;2.58;;;;;;;;;;5132023;27;20370;-70
2022/10/16 02:14:50;;;;;;;10.48;3.10;;;;;;;;;;5143377;27;20437;-70
2022/10/16 02:17:17;;;;;;;12.00;2.72;;;;;;;;;;5154482;27;20055;-69
2022/10/16 02:19:45;;;;;;;10.40;2.58;;;;;;;;;;5149691;27;20043;-70
2022/10/16 02:22:16;;;;;;;7.90;2.70;;;;;;;;;;5136075;27;20035;-70
2022/10/16 02:24:43;;;;;;;;;;;;;;;;;;5100800;27;20469;-70
2022/10/16 02:27:15;;;;;;;9.40;2.97;;;;;;;;;;5130915;27;20002;-70
2022/10/16 02:29:44;;;;;;;7.10;2.60;;;;;;;;;;5150110;27;20172;-69
2022/10/16 02:32:13;;;;;;;7.85;3.08;;;;;;;;;;5128850;27;20534;-70
2022/10/16 02:34:40;;;;;;;8.55;2.83;;;;;;;;;;5145367;27;20186;-70
2022/10/16 02:37:07;;;;;;;8.93;2.67;;;;;;;;;;5140916;27;20081;-70
2022/10/16 02:39:33;;;;;;;8.40;2.50;;;;;;;;;;5146943;27;20042;-70
2022/10/16 02:41:59;;;;;;;7.53;2.47;;;;;;;;;;5143461;27;20037;-70
2022/10/16 02:44:25;;;;;;;7.82;2.42;;;;;;;;;;5143584;27;20043;-69
2022/10/16 02:46:51;;;;;;;6.63;2.30;;;;;;;;;;5153954;27;20480;-70
2022/10/16 02:49:18;;;;;;;8.00;2.42;;;;;;;;;;5148307;27;20045;-69
2022/10/16 02:51:44;;;;;;;7.90;2.47;;;;;;;;;;5143250;27;20451;-69
2022/10/16 02:54:10;;;;;;;7.45;2.55;;;;;;;;;;5140249;27;20039;-70
2022/10/16 02:56:36;;;;;;;7.22;2.55;;;;;;;;;;5138494;27;20047;-71
2022/10/16 02:59:02;;;;;;;7.20;2.50;;;;;;;;;;5134998;27;20096;-69
2022/10/16 03:01:28;;;;;;;6.65;2.20;;;;;;;;;;5141957;27;20442;-69
2022/10/16 03:03:54;;;;;;;9.15;2.50;;;;;;;;;;5140662;27;20541;-70
2022/10/16 03:06:20;;;;;;;6.32;2.40;;;;;;;;;;5139515;27;20039;-70
2022/10/16 03:08:46;;;;;;;5.78;2.30;;;;;;;;;;5143593;27;20045;-70
2022/10/16 03:11:12;;;;;;;6.85;2.40;;;;;;;;;;5144985;27;20043;-70
2022/10/16 03:13:38;;;;;;;8.65;2.45;;;;;;;;;;5147827;27;20046;-70
2022/10/16 03:16:04;;;;;;;7.65;2.50;;;;;;;;;;5152232;27;20473;-70
2022/10/16 03:18:30;;;;;;;6.68;2.20;;;;;;;;;;5153802;27;20416;-69
2022/10/16 03:20:56;;;;;;;7.65;2.40;;;;;;;;;;5119702;27;20054;-69
2022/10/16 03:23:22;;;;;;;6.70;2.50;;;;;;;;;;5143071;27;20043;-70
2022/10/16 03:25:48;;;;;;;8.00;2.20;;;;;;;;;;5134202;27;20046;-70
2022/10/16 03:28:14;;;;;;;8.82;2.50;;;;;;;;;;5149336;27;20035;-70
2022/10/16 03:30:40;;;;;;;8.25;2.38;;;;;;;;;;5154603;27;20116;-70
2022/10/16 03:33:06;;;;;;;9.30;2.70;;;;;;;;;;5150903;27;20093;-69
2022/10/16 03:35:32;;;;;;;8.90;2.30;;;;;;;;;;5120637;27;20042;-70
2022/10/16 03:37:59;;;;;;;7.60;2.38;;;;;;;;;;5151382;27;20047;-70
2022/10/16 03:40:25;;;;;;;6.40;2.33;;;;;;;;;;5154458;27;20047;-70
2022/10/16 03:42:51;;;;;;;8.93;2.53;;;;;;;;;;5152437;27;20388;-70
2022/10/16 03:45:17;;;;;;;9.05;2.47;;;;;;;;;;5154232;27;20557;-70
2022/10/16 03:47:43;;;;;;;5.47;2.55;;;;;;;;;;5152626;27;20130;-70
2022/10/16 03:50:09;;;;;;;7.80;2.55;;;;;;;;;;5155114;27;20103;-70
2022/10/16 03:52:35;;;;;;;6.63;2.55;;;;;;;;;;5147595;27;20378;-70
2022/10/16 03:55:01;;;;;;;5.38;2.80;;;;;;;;;;5141314;27;20049;-70
2022/10/16 03:57:27;;;;;;;8.38;2.80;;;;;;;;;;5145124;27;20071;-70
2022/10/16 03:59:53;;;;;;;8.68;2.95;;;;;;;;;;5114957;27;20082;-70
2022/10/16 04:02:19;;;;;;;6.72;3.30;;;;;;;;;;5145804;27;20045;-70
2022/10/16 04:04:45;;;;;;;7.32;2.67;;;;;;;;;;5140026;27;20450;-72
2022/10/16 04:07:11;;;;;;;7.20;2.85;;;;;;;;;;5149024;27;20091;-70
2022/10/16 04:09:37;;;;;;;7.32;2.85;;;;;;;;;;5153198;27;20042;-70
2022/10/16 04:12:03;;;;;;;6.47;3.00;;;;;;;;;;5143151;27;20073;-70
2022/10/16 04:14:29;;;;;;;6.78;2.85;;;;;;;;;;5141265;27;20038;-70
2022/10/16 04:16:55;;;;;;;6.95;2.90;;;;;;;;;;5147575;27;20458;-70
2022/10/16 04:19:21;;;;;;;6.70;2.92;;;;;;;;;;5142981;27;20046;-70
2022/10/16 04:21:47;;;;;;;8.65;3.03;;;;;;;;;;5132076;27;20046;-71
2022/10/16 04:24:13;;;;;;;6.53;2.95;;;;;;;;;;5147336;27;20090;-70
2022/10/16 04:26:39;;;;;;;5.05;2.78;;;;;;;;;;5146468;27;20042;-70
2022/10/16 04:29:06;;;;;;;7.47;3.20;;;;;;;;;;5124145;27;20038;-70
2022/10/16 04:31:32;;;;;;;8.00;3.08;;;;;;;;;;5131947;27;20408;-70
2022/10/16 04:33:58;;;;;;;8.07;3.08;;;;;;;;;;5144047;27;20472;-70
2022/10/16 04:36:24;;;;;;;7.13;3.28;;;;;;;;;;5130214;27;20108;-70
2022/10/16 04:38:50;;;;;;;7.78;3.40;;;;;;;;;;5135192;27;20069;-71
2022/10/16 04:41:16;;;;;;;11.25;3.33;;;;;;;;;;5133497;27;20084;-70
2022/10/16 04:43:42;;;;;;;8.88;3.42;;;;;;;;;;5146381;27;20043;-70
2022/10/16 04:46:09;;;;;;;10.50;3.40;;;;;;;;;;5141849;27;20053;-70
2022/10/16 04:48:35;;;;;;;7.60;3.72;;;;;;;;;;5148077;27;20485;-70
2022/10/16 04:51:01;;;;;;;7.45;3.80;;;;;;;;;;5152592;27;20126;-70
2022/10/16 04:53:27;;;;;;;9.32;3.83;;;;;;;;;;5145123;27;20149;-70
2022/10/16 04:55:54;;;;;;;8.35;3.63;;;;;;;;;;5114018;27;20125;-70
2022/10/16 04:58:20;;;;;;;10.40;4.00;;;;;;;;;;5147240;27;20587;-70
2022/10/16 05:00:46;;;;;;;7.93;3.92;;;;;;;;;;5147963;27;20122;-70
2022/10/16 05:03:13;;;;;;;10.60;4.00;;;;;;;;;;5155861;27;20047;-70
2022/10/16 05:05:43;;;;;;;8.63;4.40;;;;;;;;;;5116403;27;20043;-70
2022/10/16 05:08:09;;;;;;;10.38;4.15;;;;;;;;;;5152307;27;20500;-70
2022/10/16 05:10:35;;;;;;;7.15;4.00;;;;;;;;;;5146654;27;20421;-69
2022/10/16 05:13:01;;;;;;;8.45;3.70;;;;;;;;;;5152941;27;20755;-70
2022/10/16 05:15:28;;;;;;;7.05;4.22;;;;;;;;;;5153061;27;20042;-69
2022/10/16 05:17:54;;;;;;;7.15;4.10;;;;;;;;;;5151278;27;20408;-70
2022/10/16 05:20:20;;;;;;;7.97;3.90;;;;;;;;;;5142334;27;20072;-70
2022/10/16 05:22:46;;;;;;;6.38;3.55;;;;;;;;;;5139479;27;20057;-69
2022/10/16 05:25:12;;;;;;;8.18;4.10;;;;;;;;;;5129831;27;20043;-69
2022/10/16 05:27:38;;;;;;;9.35;3.88;;;;;;;;;;5148498;27;20047;-70
2022/10/16 05:30:05;;;;;;;9.00;3.70;;;;;;;;;;5138624;27;20054;-69
2022/10/16 05:32:31;;;;;;;10.60;4.38;;;;;;;;;;5155619;27;20504;-69
2022/10/16 05:34:59;;;;;;;7.80;3.88;;;;;;;;;;5157052;27;20100;-69
2022/10/16 05:37:25;;;;;;;8.50;3.75;;;;;;;;;;5156701;27;20074;-69
2022/10/16 05:39:51;;;;;;;8.43;3.80;;;;;;;;;;5150680;27;20043;-70
2022/10/16 05:42:18;;;;;;;7.47;4.10;;;;;;;;;;5135767;27;20516;-69
2022/10/16 05:44:44;;;;;;;8.35;4.32;;;;;;;;;;5150015;27;20536;-69
2022/10/16 05:47:10;;;;;;;8.20;4.18;;;;;;;;;;5155184;27;20085;-69
2022/10/16 05:49:36;;;;;;;6.97;3.60;;;;;;;;;;5153895;27;20047;-69
2022/10/16 05:52:02;;;;;;;8.52;4.07;;;;;;;;;;5150286;27;20039;-69
2022/10/16 05:54:28;;;;;;;11.63;4.07;;;;;;;;;;5145090;27;20104;-69
2022/10/16 05:56:55;;;;;;;12.70;4.15;;;;;;;;;;5141364;27;20424;-69
2022/10/16 05:59:21;;;;;;;10.90;4.50;;;;;;;;;;5141608;27;20419;-69
2022/10/16 06:01:47;;;;;;;9.75;3.78;;;;;;;;;;5145570;27;20357;-69
2022/10/16 06:04:13;;;;;;;7.95;3.85;;;;;;;;;;5140646;27;20461;-70
2022/10/16 06:06:39;;;;;;;8.38;3.88;;;;;;;;;;5141075;27;20435;-70
2022/10/16 06:09:05;;;;;;;7.72;4.07;;;;;;;;;;5139319;27;20515;-70
2022/10/16 06:11:32;;;;;;;7.30;3.90;;;;;;;;;;5136934;27;20070;-70
2022/10/16 06:14:01;;;;;;;9.48;3.92;;;;;;;;;;5144143;27;20046;-70
2022/10/16 06:16:28;;;;;;;6.13;3.60;;;;;;;;;;5137129;27;20078;-70
2022/10/16 06:18:55;;;;;;;7.28;3.35;;;;;;;;;;5148405;27;20515;-70
2022/10/16 06:21:24;;;;;;;7.47;3.10;;;;;;;;;;5135248;27;20058;-70
2022/10/16 06:23:50;;;;;;;8.52;3.53;;;;;;;;;;5139139;27;20042;-70
2022/10/16 06:26:18;;;;;;;7.75;3.13;;;;;;;;;;5140156;27;20118;-70
2022/10/16 06:28:44;;;;;;;8.88;3.50;;;;;;;;;;5149114;27;20404;-70
2022/10/16 06:31:11;;;;;;;9.48;3.60;;;;;;;;;;5143197;27;20057;-70
2022/10/16 06:33:37;;;;;;;9.07;3.05;;;;;;;;;;5142491;27;20034;-70
2022/10/16 06:36:08;;;;;;;8.40;3.05;;;;;;;;;;5136569;27;20125;-70
2022/10/16 06:38:34;;;;;;;8.77;3.53;;;;;;;;;;5138491;27;20070;-70
2022/10/16 06:41:01;;;;;;;8.73;3.05;;;;;;;;;;5100805;27;20047;-70
2022/10/16 06:43:31;;;;;;;6.35;2.72;;;;;;;;;;5134151;27;20046;-70
2022/10/16 06:45:58;;;;;;;9.02;2.97;;;;;;;;;;5141192;27;20049;-70
2022/10/16 06:48:24;;;;;;;8.40;3.42;;;;;;;;;;5154941;27;20042;-70
2022/10/16 06:50:57;;;;;;;11.57;3.03;;;;;;;;;;5151208;27;20492;-70
2022/10/16 06:53:23;;;;;;;6.22;2.88;;;;;;;;;;5119128;27;20046;-70
2022/10/16 06:55:49;;;;;;;5.80;2.50;;;;;;;;;;5153355;27;20089;-70
2022/10/16 06:58:15;;;;;;;5.55;2.58;;;;;;;;;;5154877;27;20042;-70
2022/10/16 07:00:41;;;;;;;5.95;2.60;;;;;;;;;;5140061;27;20035;-70
2022/10/16 07:03:07;;;;;;;7.35;2.80;;;;;;;;;;5135738;27;20058;-71
2022/10/16 07:05:38;;;;;;;8.82;2.83;;;;;;;;;;5136772;27;20035;-70
2022/10/16 07:08:05;;;;;;;5.82;2.47;;;;;;;;;;5136242;27;20139;-70
2022/10/16 07:10:31;;;;;;;6.30;2.78;;;;;;;;;;5134449;27;20055;-69
2022/10/16 07:12:57;;;;;;;8.40;2.60;;;;;;;;;;5146239;27;20043;-69
2022/10/16 07:15:24;;;;;;;9.80;2.80;;;;;;;;;;5118630;27;20054;-69
2022/10/16 07:17:50;;;;;;;7.93;2.70;;;;;;;;;;5133642;27;20059;-69
2022/10/16 07:20:16;;;;;;;9.25;2.88;;;;;;;;;;5137586;27;20062;-70
2022/10/16 07:22:42;;;;;;;9.88;2.80;;;;;;;;;;5141780;27;20043;-71
2022/10/16 07:25:08;;;;;;;8.10;2.72;;;;;;;;;;5138734;27;20054;-70
2022/10/16 07:27:34;;;;;;;7.00;2.55;;;;;;;;;;5145715;27;20119;-70
2022/10/16 07:30:01;;;;;;;6.90;2.65;;;;;;;;;;5123220;27;20401;-70
2022/10/16 07:32:27;;;;;;;9.75;3.00;;;;;;;;;;5148569;27;20165;-70
2022/10/16 07:34:55;;;;;;;7.15;2.65;;;;;;;;;;5136280;27;20043;-70
2022/10/16 07:37:21;;;;;;;7.03;2.63;;;;;;;;;;5153216;27;20055;-70
2022/10/16 07:39:47;;;;;;;10.85;2.40;;;;;;;;;;5143709;27;20499;-70
2022/10/16 07:42:13;;;;;;;11.30;2.85;;;;;;;;;;5142509;27;20043;-71
2022/10/16 07:44:40;;;;;;;7.32;2.60;;;;;;;;;;5141878;27;20084;-70
2022/10/16 07:47:06;;;;;;;7.03;2.58;;;;;;;;;;5134206;27;20126;-70
2022/10/16 07:49:33;;;;;;;6.72;2.63;;;;;;;;;;5143346;27;20038;-70
2022/10/16 07:51:59;;;;;;;8.70;2.97;;;;;;;;;;5147428;27;20043;-70
2022/10/16 07:54:25;;;;;;;9.23;3.17;;;;;;;;;;5136403;27;20049;-70
2022/10/16 07:56:51;;;;;;;11.45;2.65;;;;;;;;;;5149208;27;20104;-70
2022/10/16 07:59:17;;;;;;;6.82;2.65;;;;;;;;;;5135786;27;20449;-70
2022/10/16 08:01:43;;;;;;;8.25;2.53;;;;;;;;;;5134742;27;20130;-70
2022/10/16 08:04:10;;;;;;;7.03;2.58;;;;;;;;;;5132729;27;20150;-70
2022/10/16 08:06:37;;;;;;;7.90;2.85;;;;;;;;;;5141871;27;20046;-70
2022/10/16 08:09:03;;;;;;;6.53;2.35;;;;;;;;;;5134436;27;20384;-71
2022/10/16 08:11:29;;;;;;;7.18;2.70;;;;;;;;;;5147174;27;20043;-70
2022/10/16 08:13:55;;;;;;;9.70;2.47;;;;;;;;;;5154020;27;20043;-70
2022/10/16 08:16:22;;;;;;;10.38;2.90;;;;;;;;;;5149927;27;20095;-71
2022/10/16 08:18:48;;;;;;;10.80;3.45;;;;;;;;;;5152352;27;20054;-71
2022/10/16 08:21:15;;;;;;;7.13;2.70;;;;;;;;;;5154171;27;20047;-70
2022/10/16 08:23:42;;;;;;;7.80;2.88;;;;;;;;;;5153562;27;20039;-71
2022/10/16 08:26:08;;;;;;;7.60;2.25;;;;;;;;;;5140363;27;20050;-70
2022/10/16 08:28:34;;;;;;;8.38;2.80;;;;;;;;;;5141517;27;20556;-70
2022/10/16 08:31:11;;;;;;;5.72;2.53;;;;;;;;;;5136545;27;20565;-70
2022/10/16 08:33:38;;;;;;;8.98;2.33;;;;;;;;;;5143645;27;20050;-70
2022/10/16 08:36:05;;;;;;;6.68;2.00;;;;;;;;;;5141974;27;20039;-70
2022/10/16 08:38:31;;;;;;;7.10;2.10;;;;;;;;;;5124844;28;20412;-71
2022/10/16 08:41:17;;;;;;;6.80;2.28;;;;;;;;;;5132512;28;20043;-70
2022/10/16 08:43:48;;;;;;;5.68;1.83;;;;;;;;;;5104173;27;20389;-70
2022/10/16 08:46:20;;;;;;;6.80;1.80;;;;;;;;;;5144902;27;20043;-70
2022/10/16 08:48:54;;;;;;;5.57;1.58;;;;;;;;;;5139633;27;20051;-70
2022/10/16 08:51:28;;;;;;;10.05;2.22;;;;;;;;;;5152535;27;20082;-70
2022/10/16 08:53:55;;;;;;;5.32;1.55;;;;;;;;;;5134329;27;20053;-70
2022/10/16 08:56:22;;;;;;;6.75;1.60;;;;;;;;;;5139686;27;20054;-71
2022/10/16 08:58:48;;;;;;;8.23;1.80;;;;;;;;;;5132421;27;20035;-71
2022/10/16 09:01:16;;;;;;;8.68;2.58;;;;;;;;;;5146205;27;20404;-73
2022/10/16 09:03:59;;;;;;;6.00;2.10;;;;;;;;;;5133743;27;20047;-71
2022/10/16 09:06:28;;;;;;;8.15;1.70;;;;;;;;;;5119789;28;20497;-71
2022/10/16 09:09:00;;;;;;;8.07;2.05;;;;;;;;;;5143119;27;20373;-71
2022/10/16 09:11:53;;;;;;;8.32;1.75;;;;;;;;;;5144812;27;20105;-74
2022/10/16 09:14:26;;;;;;;6.45;1.88;;;;;;;;;;5128219;27;20059;-70
2022/10/16 09:17:01;;;;;;;7.20;1.70;;;;;;;;;;5135571;27;20054;-71
2022/10/16 09:19:31;;;;;;;7.75;1.90;;;;;;;;;;5151173;27;20038;-72
2022/10/16 09:22:00;;;;;;;9.55;2.28;;;;;;;;;;5121109;28;20040;-72
2022/10/16 09:24:26;;;;;;;6.22;1.60;;;;;;;;;;5133403;27;20077;-72
2022/10/16 09:26:52;;;;;;;5.13;1.65;;;;;;;;;;5131922;27;20039;-72
2022/10/16 09:29:24;;;;;;;8.98;1.85;;;;;;;;;;5134966;27;20043;-72
2022/10/16 09:31:51;;;;;;;7.15;1.85;;;;;;;;;;5131798;27;20118;-72
2022/10/16 09:34:23;;;;;;;9.65;1.80;;;;;;;;;;5120216;28;20043;-72
2022/10/16 09:36:50;;;;;;;12.65;1.80;;;;;;;;;;5124356;27;20509;-72
2022/10/16 09:39:16;;;;;;;8.98;1.70;;;;;;;;;;5134960;27;20075;-72
2022/10/16 09:41:44;;;;;;;7.57;1.98;;;;;;;;;;5155176;27;20129;-72
2022/10/16 09:44:36;;;;;;;9.88;1.80;;;;;;;;;;5143091;27;20069;-72
2022/10/16 09:47:02;;;;;;;7.32;1.80;;;;;;;;;;5148480;27;20070;-72
2022/10/16 09:49:28;;;;;;;10.80;2.28;;;;;;;;;;5149124;27;20067;-72
2022/10/16 09:52:12;;;;;;;10.05;2.03;;;;;;;;;;5145982;27;20049;-72
2022/10/16 09:54:49;;;;;;;8.55;1.70;;;;;;;;;;5124153;27;20035;-72
2022/10/16 09:57:15;;;;;;;9.82;2.00;;;;;;;;;;5137831;27;20086;-72
2022/10/16 09:59:51;;;;;;;9.80;1.70;;;;;;;;;;5148530;27;20373;-72
2022/10/16 10:02:19;;;;;;;8.45;1.77;;;;;;;;;;5144343;27;20050;-72
2022/10/16 10:04:54;;;;;;;12.05;1.77;;;;;;;;;;5135491;27;20174;-72
2022/10/16 10:07:26;;;;;;;11.60;1.98;;;;;;;;;;5143565;27;20118;-72
2022/10/16 10:09:53;;;;;;;10.27;2.05;;;;;;;;;;5152557;27;20054;-72
2022/10/16 10:12:24;;;;;;;10.63;1.90;;;;;;;;;;5136154;27;20035;-72
2022/10/16 10:14:50;;;;;;;;;;;;;;;;;;5148157;27;20089;-72
2022/10/16 10:17:24;;;;;;;11.13;2.15;;;;;;;;;;5151220;27;20372;-72
2022/10/16 10:20:00;;;;;;;13.77;2.13;;;;;;;;;;5153303;27;20046;-72
2022/10/16 10:22:29;;;;;;;10.73;1.88;;;;;;;;;;5148174;27;20061;-72
2022/10/16 10:25:15;;;;;;;8.85;2.00;;;;;;;;;;5134672;27;20480;-72
2022/10/16 10:27:44;;;;;;;9.50;1.80;;;;;;;;;;5120611;27;20059;-72
2022/10/16 10:30:30;;;;;;;10.10;2.13;;;;;;;;;;5135128;27;20041;-72
2022/10/16 10:33:14;;;;;;;13.25;1.98;;;;;;;;;;5147947;27;20049;-72
2022/10/16 10:35:40;;;;;;;10.38;1.88;;;;;;;;;;5148537;27;20039;-71
2022/10/16 10:38:06;;;;;;;11.77;1.83;;;;;;;;;;5147691;27;20455;-72
2022/10/16 10:40:51;;;;;;;9.70;1.70;;;;;;;;;;5146795;27;20100;-72
2022/10/16 10:43:25;;;;;;;10.88;2.00;;;;;;;;;;5138785;27;20035;-72
2022/10/16 10:45:55;;;;;;;17.10;2.17;;;;;;;;;;5134808;27;20531;-72
2022/10/16 10:48:47;;;;;;;12.10;2.30;;;;;;;;;;5134143;27;20047;-72
2022/10/16 10:51:16;;;;;;;15.75;2.30;;;;;;;;;;5141572;27;20129;-72
2022/10/16 10:54:01;;;;;;;9.98;2.00;;;;;;;;;;5144663;27;20457;-72
2022/10/16 10:56:45;;;;;;;12.52;1.90;;;;;;;;;;5146564;27;20126;-72
2022/10/16 10:59:30;;;;;;;11.25;1.85;;;;;;;;;;5140752;27;20043;-72
2022/10/16 11:02:00;;;;;;;11.85;2.17;;;;;;;;;;5150861;27;20166;-72
2022/10/16 11:04:43;;;;;;;13.73;2.10;;;;;;;;;;5134639;27;20397;-72
2022/10/16 11:07:30;;;;;;;11.18;1.90;;;;;;;;;;5139934;27;20038;-72
2022/10/16 11:10:03;;;;;;;11.68;1.88;;;;;;;;;;5123873;27;20087;-72
2022/10/16 11:12:37;;;;;;;10.55;1.90;;;;;;;;;;5142842;27;20228;-73
2022/10/16 11:15:08;;;;;;;11.80;2.33;;;;;;;;;;5153707;27;20498;-72
2022/10/16 11:17:37;;;;;;;12.07;1.95;;;;;;;;;;5146148;27;20069;-72
2022/10/16 11:20:19;;;;;;;11.35;2.20;;;;;;;;;;5144505;27;20051;-72
2022/10/16 11:22:45;;;;;;;;;;;;;;;;;;5136143;27;20058;-72
2022/10/16 11:25:21;;;;;;;14.43;2.25;;;;;;;;;;5144371;27;19919;-72
2022/10/16 11:28:03;;;;;;;12.40;2.40;;;;;;;;;;5125656;27;20054;-72
2022/10/16 11:30:30;;;;;;;10.95;1.85;;;;;;;;;;5134847;27;20035;-72
2022/10/16 11:33:05;;;;;;;15.20;2.15;;;;;;;;;;5133727;27;20070;-71
2022/10/16 11:35:34;;;;;;;10.75;1.60;;;;;;;;;;5150176;27;20039;-72
2022/10/16 11:38:04;;;;;;;9.27;1.40;;;;;;;;;;5140107;27;20215;-72
2022/10/16 11:40:35;;;;;;;13.27;2.20;;;;;;;;;;5137859;27;20061;-72
2022/10/16 11:43:22;;;;;;;12.18;2.35;;;;;;;;;;5137259;27;20130;-71
2022/10/16 11:45:53;;;;;;;10.98;2.25;;;;;;;;;;5143329;27;20043;-72
2022/10/16 11:48:23;;;;;;;14.10;2.28;;;;;;;;;;5142106;27;20503;-72
2022/10/16 11:50:52;;;;;;;8.57;2.08;;;;;;;;;;5133955;27;20499;-72
2022/10/16 11:53:36;;;;;;;10.15;2.10;;;;;;;;;;5147303;27;20046;-72
2022/10/16 11:56:04;;;;;;;16.60;2.10;;;;;;;;;;5138235;27;20369;-72
2022/10/16 11:58:34;;;;;;;12.20;1.90;;;;;;;;;;5133450;27;20031;-72
2022/10/16 12:01:09;;;;;;;11.18;2.00;;;;;;;;;;5138298;27;20495;-72
2022/10/16 12:03:44;;;;;;;12.38;2.17;;;;;;;;;;5142810;27;20081;-72
2022/10/16 12:06:13;;;;;;;13.20;1.98;;;;;;;;;;5133076;27;20478;-72
2022/10/16 12:08:39;;;;;;;10.73;1.98;;;;;;;;;;5134647;27;20051;-71
2022/10/16 12:11:24;;;;;;;7.47;2.10;;;;;;;;;;5143422;27;20548;-72
2022/10/16 12:13:50;;;;;;;9.73;1.90;;;;;;;;;;5136248;27;20039;-72
2022/10/16 12:16:16;;;;;;;13.77;2.20;;;;;;;;;;5140760;27;20134;-72
2022/10/16 12:18:46;;;;;;;8.43;1.67;;;;;;;;;;5114676;28;20104;-72
2022/10/16 12:21:15;;;;;;;13.50;2.05;;;;;;;;;;5148076;27;20053;-72
2022/10/16 12:23:51;;;;;;;12.75;1.95;;;;;;;;;;5152674;27;20039;-72
2022/10/16 12:26:26;;;;;;;11.23;1.73;;;;;;;;;;5132524;27;20042;-72
2022/10/16 12:28:53;;;;;;;10.00;1.80;;;;;;;;;;5134710;27;20051;-72
2022/10/16 12:31:19;;;;;;;8.32;1.48;;;;;;;;;;5131270;27;20041;-72
2022/10/16 12:34:02;;;;;;;9.68;2.42;;;;;;;;;;5145605;27;20118;-72
2022/10/16 12:36:31;;;;;;;13.20;2.10;;;;;;;;;;5147215;27;20126;-72
2022/10/16 12:38:58;;;;;;;11.40;2.13;;;;;;;;;;5132604;27;20431;-72
2022/10/16 12:41:26;;;;;;;10.20;2.10;;;;;;;;;;5132178;27;20040;-72
2022/10/16 12:43:52;;;;;;;13.43;1.90;;;;;;;;;;5135436;27;20058;-72
2022/10/16 12:46:18;;;;;;;9.13;1.75;;;;;;;;;;5145391;27;20035;-72
2022/10/16 12:48:46;;;;;;;10.32;1.63;;;;;;;;;;5132516;27;20100;-72
2022/10/16 12:51:34;;;;;;;11.00;2.00;;;;;;;;;;5123218;27;20042;-72
2022/10/16 12:54:17;;;;;;;10.30;2.00;;;;;;;;;;5138231;27;20035;-72
2022/10/16 12:57:01;;;;;;;12.73;2.15;;;;;;;;;;5138808;27;20085;-72
2022/10/16 12:59:35;;;;;;;10.02;2.17;;;;;;;;;;5137648;27;20035;-72
2022/10/16 13:02:07;;;;;;;9.80;2.53;;;;;;;;;;5145938;27;20091;-72
2022/10/16 13:05:02;;;;;;;10.55;2.25;;;;;;;;;;5132558;27;20138;-72
2022/10/16 13:07:38;;;;;;;12.25;3.40;;;;;;;;;;5151195;27;20046;-72
2022/10/16 13:10:23;;;;;;;13.48;3.10;;;;;;;;;;5150935;27;20421;-72
2022/10/16 13:12:52;;;;;;;13.20;3.13;;;;;;;;;;5128176;27;20398;-72
2022/10/16 13:15:30;;;;;;;11.23;2.88;;;;;;;;;;5141593;27;20070;-72
2022/10/16 13:18:13;;;;;;;9.05;1.90;;;;;;;;;;5133170;27;20047;-72
2022/10/16 13:20:54;;;;;;;10.32;2.50;;;;;;;;;;5140097;27;20039;-72
2022/10/16 13:23:49;;;;;;;14.75;3.40;;;;;;;;;;5136869;27;20451;-72
2022/10/16 13:26:38;;;;;;;10.70;2.20;;;;;;;;;;5108780;27;20066;-72
2022/10/16 13:29:05;;;;;;;10.98;1.92;;;;;;;;;;5131312;27;20058;-72
2022/10/16 13:31:31;;;;;;;8.63;1.63;;;;;;;;;;5143331;27;20498;-72
2022/10/16 13:33:58;;;;;;;13.10;2.88;;;;;;;;;;5137579;27;20054;-71
2022/10/16 13:36:29;;;;;;;10.52;1.60;;;;;;;;;;5119198;27;20078;-72
2022/10/16 13:39:21;;;;;;;10.40;1.90;;;;;;;;;;5138289;27;20040;-72
2022/10/16 13:41:58;;;;;;;11.85;2.13;;;;;;;;;;5147924;27;20288;-72
2022/10/16 13:44:24;;;;;;;13.25;1.98;;;;;;;;;;5150160;27;20556;-72
2022/10/16 13:46:59;;;;;;;15.13;2.10;;;;;;;;;;5117534;27;20131;-72
2022/10/16 13:49:25;;;;;;;14.57;2.28;;;;;;;;;;5139478;27;20053;-72
2022/10/16 13:52:00;;;;;;;12.23;2.13;;;;;;;;;;5140249;27;20046;-72
2022/10/16 13:54:30;;;;;;;9.23;1.95;;;;;;;;;;5138044;27;20181;-72
2022/10/16 13:56:56;;;;;;;9.80;1.83;;;;;;;;;;5146680;27;20114;-72
2022/10/16 13:59:24;;;;;;;9.68;1.90;;;;;;;;;;5151043;27;20084;-72
2022/10/16 14:01:51;;;;;;;12.70;1.90;;;;;;;;;;5147775;27;20047;-72
2022/10/16 14:04:18;;;;;;;11.75;2.05;;;;;;;;;;5148058;27;20041;-72
2022/10/16 14:06:47;;;;;;;12.23;2.20;;;;;;;;;;5146856;27;20054;-72
2022/10/16 14:09:19;;;;;;;12.43;2.22;;;;;;;;;;5136100;27;20046;-72
2022/10/16 14:11:53;;;;;;;12.65;2.38;;;;;;;;;;5136018;27;20067;-72
2022/10/16 14:14:19;;;;;;;12.50;2.25;;;;;;;;;;5135665;27;20122;-72
2022/10/16 14:16:46;;;;;;;15.95;2.30;;;;;;;;;;5135131;27;20039;-72
2022/10/16 14:19:28;;;;;;;13.50;1.90;;;;;;;;;;5135259;27;20488;-72
2022/10/16 14:21:54;;;;;;;9.13;1.48;;;;;;;;;;5134489;27;20147;-72
2022/10/16 14:24:35;;;;;;;11.43;2.03;;;;;;;;;;5136168;27;20043;-72
2022/10/16 14:27:02;;;;;;;12.40;2.08;;;;;;;;;;5141074;27;20172;-72
2022/10/16 14:29:31;;;;;;;9.95;2.00;;;;;;;;;;5118268;27;20122;-72
2022/10/16 14:32:09;;;;;;;10.27;2.00;;;;;;;;;;5145966;27;20042;-72
2022/10/16 14:34:36;;;;;;;13.30;2.80;;;;;;;;;;5134949;27;20043;-72
2022/10/16 14:37:23;;;;;;;14.57;2.70;;;;;;;;;;5151263;27;20103;-72
2022/10/16 14:39:52;;;;;;;10.05;2.22;;;;;;;;;;5140861;27;20051;-72
2022/10/16 14:42:19;;;;;;;8.48;2.00;;;;;;;;;;5136984;27;20047;-71
2022/10/16 14:44:46;;;;;;;14.05;2.13;;;;;;;;;;5153956;27;20046;-71
2022/10/16 14:47:21;;;;;;;12.35;2.10;;;;;;;;;;5146839;27;20043;-71
2022/10/16 14:49:47;;;;;;;11.95;2.28;;;;;;;;;;5151407;27;20404;-71
2022/10/16 14:52:14;;;;;;;13.82;2.30;;;;;;;;;;5137265;27;20103;-71